createdAt,value
2022-12-04T00:00:52.066Z,70.15
2022-12-04T00:01:54.798Z,77.13
2022-12-04T00:02:57.050Z,74.03
2022-12-04T00:04:00.799Z,78.50
2022-12-04T00:05:05.678Z,84.40
2022-12-04T00:06:11.691Z,81.88
2022-12-04T00:07:14.137Z,76.82
2022-12-04T00:08:16.422Z,72.32
2022-12-04T00:09:18.787Z,74.97
2022-12-04T00:10:21.007Z,71.53
2022-12-04T00:11:25.663Z,73.45
2022-12-04T00:12:28.151Z,71.40
2022-12-04T00:13:30.428Z,75.63
2022-12-04T00:14:32.781Z,75.55
2022-12-04T00:15:35.040Z,75.55
2022-12-04T00:16:37.461Z,74.43
2022-12-04T00:17:39.679Z,70.05
2022-12-04T00:18:42.018Z,70.07
2022-12-04T00:19:44.308Z,67.43
2022-12-04T00:20:46.535Z,79.38
2022-12-04T00:21:50.295Z,71.45
2022-12-04T00:22:53.132Z,72.32
2022-12-04T00:23:55.442Z,74.45
2022-12-04T00:24:57.699Z,77.47
2022-12-04T00:26:05.647Z,74.53
2022-12-04T00:27:07.830Z,70.70
2022-12-04T00:28:10.167Z,81.75
2022-12-04T00:29:12.599Z,79.68
2022-12-04T00:30:15.137Z,81.25
2022-12-04T00:31:23.661Z,75.05
2022-12-04T00:32:25.922Z,79.20
2022-12-04T00:33:28.216Z,77.05
2022-12-04T00:34:30.439Z,82.07
2022-12-04T00:35:32.639Z,77.82
2022-12-04T00:36:34.907Z,73.93
2022-12-04T00:37:37.180Z,73.90
2022-12-04T00:38:40.482Z,82.88
2022-12-04T00:39:42.712Z,73.22
2022-12-04T00:40:51.754Z,74.57
2022-12-04T00:41:54.043Z,77.25
2022-12-04T00:42:56.251Z,83.65
2022-12-04T00:43:59.511Z,69.47
2022-12-04T00:45:01.762Z,74.43
2022-12-04T00:46:04.328Z,84.18
2022-12-04T00:47:06.619Z,87.57
2022-12-04T00:48:08.843Z,77.93
2022-12-04T00:49:11.103Z,77.50
2022-12-04T00:50:13.415Z,72.63
2022-12-04T00:51:19.188Z,88.03
2022-12-04T00:52:21.447Z,84.75
2022-12-04T00:53:23.637Z,78.80
2022-12-04T00:54:25.873Z,81.25
2022-12-04T00:55:28.138Z,69.35
2022-12-04T00:56:30.359Z,83.70
2022-12-04T00:57:32.797Z,79.07
2022-12-04T00:58:35.161Z,72.68
2022-12-04T00:59:38.379Z,66.05
2022-12-04T01:00:42.210Z,76.07
2022-12-04T01:01:44.471Z,78.63
2022-12-04T01:02:46.820Z,72.85
2022-12-04T01:03:50.345Z,77.40
2022-12-04T01:04:52.586Z,76.60
2022-12-04T01:05:54.980Z,81.47
2022-12-04T01:07:01.557Z,75.63
2022-12-04T01:08:07.678Z,70.65
2022-12-04T01:09:11.379Z,74.55
2022-12-04T01:10:15.396Z,67.18
2022-12-04T01:11:18.668Z,82.70
2022-12-04T01:12:21.232Z,74.25
2022-12-04T01:13:24.564Z,72.57
2022-12-04T01:14:26.815Z,81.78
2022-12-04T01:15:29.119Z,74.95
2022-12-04T01:16:34.427Z,83.03
2022-12-04T01:17:37.610Z,88.35
2022-12-04T01:18:39.833Z,83.10
2022-12-04T01:19:42.107Z,92.95
2022-12-04T01:20:51.799Z,82.97
2022-12-04T01:21:54.086Z,77.55
2022-12-04T01:22:56.540Z,83.90
2022-12-04T01:23:59.751Z,70.13
2022-12-04T01:25:02.023Z,85.13
2022-12-04T01:26:04.590Z,81.53
2022-12-04T01:27:06.963Z,99.28
2022-12-04T01:28:10.234Z,82.95
2022-12-04T01:29:12.502Z,82.68
2022-12-04T01:30:14.954Z,81.63
2022-12-04T01:31:19.673Z,84.60
2022-12-04T01:32:21.907Z,78.32
2022-12-04T01:33:24.169Z,78.72
2022-12-04T01:34:26.603Z,68.10
2022-12-04T01:35:28.810Z,71.53
2022-12-04T01:36:31.160Z,83.25
2022-12-04T01:37:33.502Z,84.35
2022-12-04T01:38:36.436Z,80.50
2022-12-04T01:39:38.698Z,85.15
2022-12-04T01:40:44.562Z,76.40
2022-12-04T01:41:47.477Z,74.47
2022-12-04T01:42:49.699Z,82.40
2022-12-04T01:44:18.012Z,87.82
2022-12-04T01:45:36.656Z,73.28
2022-12-04T01:46:40.043Z,73.20
2022-12-04T01:47:42.319Z,84.82
2022-12-04T01:48:50.725Z,84.18
2022-12-04T01:49:53.036Z,94.45
2022-12-04T01:51:02.691Z,79.07
2022-12-04T01:52:16.023Z,81.55
2022-12-04T01:53:19.582Z,81.10
2022-12-04T01:54:28.569Z,89.82
2022-12-04T01:55:32.275Z,78.60
2022-12-04T01:56:42.253Z,82.22
2022-12-04T01:57:46.047Z,83.63
2022-12-04T01:58:54.011Z,76.93
2022-12-04T02:00:00.102Z,84.75
2022-12-04T02:01:08.766Z,76.97
2022-12-04T02:02:15.203Z,76.18
2022-12-04T02:03:17.935Z,82.75
2022-12-04T02:04:20.223Z,89.80
2022-12-04T02:05:23.368Z,88.40
2022-12-04T02:06:25.625Z,84.95
2022-12-04T02:07:28.784Z,92.80
2022-12-04T02:08:31.625Z,89.75
2022-12-04T02:09:35.681Z,91.63
2022-12-04T02:10:44.881Z,89.88
2022-12-04T02:12:12.697Z,79.22
2022-12-04T02:13:26.043Z,80.18
2022-12-04T02:14:41.834Z,94.20
2022-12-04T02:16:14.151Z,96.07
2022-12-04T02:17:25.283Z,103.65
2022-12-04T02:18:41.250Z,80.80
2022-12-04T02:19:55.395Z,75.40
2022-12-04T02:21:02.125Z,94.70
2022-12-04T02:22:20.987Z,88.30
2022-12-04T02:24:00.353Z,81.32
2022-12-04T02:25:21.201Z,83.93
2022-12-04T02:26:55.663Z,89.22
2022-12-04T02:28:19.633Z,83.93
2022-12-04T02:29:36.689Z,85.60
2022-12-04T02:30:41.540Z,83.38
2022-12-04T02:32:09.722Z,85.50
2022-12-04T02:33:18.426Z,88.13
2022-12-04T02:34:43.718Z,79.18
2022-12-04T02:36:17.068Z,85.85
2022-12-04T02:37:25.603Z,87.47
2022-12-04T02:38:36.520Z,96.05
2022-12-04T02:39:49.985Z,88.97
2022-12-04T02:41:11.296Z,93.43
2022-12-04T02:42:13.473Z,100.32
2022-12-04T02:43:22.005Z,108.63
2022-12-04T02:44:34.172Z,89.80
2022-12-04T02:45:46.183Z,87.63
2022-12-04T02:46:54.821Z,89.53
2022-12-04T02:47:59.895Z,85.68
2022-12-04T02:49:05.143Z,92.75
2022-12-04T02:50:13.005Z,94.47
2022-12-04T02:51:18.173Z,94.70
2022-12-04T02:52:26.197Z,81.10
2022-12-04T02:53:36.027Z,92.22
2022-12-04T02:54:42.886Z,80.10
2022-12-04T02:55:53.383Z,90.95
2022-12-04T02:56:58.098Z,90.05
2022-12-04T02:58:16.496Z,95.15
2022-12-04T02:59:25.672Z,83.25
2022-12-04T03:00:30.379Z,83.97
2022-12-04T03:01:37.222Z,84.53
2022-12-04T03:02:54.425Z,85.95
2022-12-04T03:04:03.976Z,85.25
2022-12-04T03:05:13.230Z,82.80
2022-12-04T03:06:18.377Z,78.85
2022-12-04T03:07:28.015Z,93.55
2022-12-04T03:08:54.669Z,82.82
2022-12-04T03:10:02.805Z,88.30
2022-12-04T03:11:05.550Z,99.43
2022-12-04T03:12:16.604Z,81.63
2022-12-04T03:13:28.558Z,93.68
2022-12-04T03:14:34.892Z,91.15
2022-12-04T03:15:47.899Z,101.78
2022-12-04T03:16:55.602Z,93.55
2022-12-04T03:18:38.176Z,86.05
2022-12-04T03:19:47.376Z,89.38
2022-12-04T03:20:55.152Z,93.45
2022-12-04T03:22:06.168Z,86.25
2022-12-04T03:23:16.240Z,89.88
2022-12-04T03:24:26.234Z,96.18
2022-12-04T03:25:35.020Z,99.38
2022-12-04T03:26:43.462Z,103.43
2022-12-04T03:28:02.145Z,95.95
2022-12-04T03:29:15.751Z,102.50
2022-12-04T03:30:21.992Z,94.85
2022-12-04T03:31:35.656Z,94.65
2022-12-04T03:32:49.356Z,100.93
2022-12-04T03:33:54.207Z,102.20
2022-12-04T03:35:11.326Z,101.28
2022-12-04T03:36:21.325Z,95.85
2022-12-04T03:37:59.890Z,96.07
2022-12-04T03:39:11.091Z,82.63
2022-12-04T03:40:36.546Z,86.65
2022-12-04T03:42:15.335Z,84.75
2022-12-04T03:43:46.958Z,89.28
2022-12-04T03:45:00.683Z,84.63
2022-12-04T03:46:09.992Z,98.45
2022-12-04T03:47:25.791Z,84.88
2022-12-04T03:48:46.646Z,99.53
2022-12-04T03:49:57.598Z,92.53
2022-12-04T03:51:40.660Z,92.38
2022-12-04T03:53:03.723Z,92.57
2022-12-04T03:54:16.112Z,86.43
2022-12-04T03:55:29.578Z,94.70
2022-12-04T03:56:36.554Z,81.57
2022-12-04T03:57:43.980Z,97.53
2022-12-04T03:58:51.407Z,91.25
2022-12-04T04:00:16.642Z,89.13
2022-12-04T04:01:27.989Z,85.85
2022-12-04T04:02:36.714Z,96.03
2022-12-04T04:03:46.364Z,93.30
2022-12-04T04:04:52.995Z,87.55
2022-12-04T04:06:14.074Z,82.00
2022-12-04T04:07:35.742Z,95.63
2022-12-04T04:08:41.256Z,91.00
2022-12-04T04:09:47.855Z,105.05
2022-12-04T04:10:51.548Z,86.07
2022-12-04T04:12:02.824Z,91.63
2022-12-04T04:13:23.910Z,93.30
2022-12-04T04:15:05.870Z,107.75
2022-12-04T04:16:30.292Z,97.40
2022-12-04T04:17:56.389Z,101.28
2022-12-04T04:19:18.505Z,84.03
2022-12-04T04:21:11.539Z,93.35
2022-12-04T04:22:35.193Z,85.13
2022-12-04T04:24:07.570Z,98.95
2022-12-04T04:25:20.181Z,101.30
2022-12-04T04:26:24.239Z,88.70
2022-12-04T04:27:26.479Z,90.07
2022-12-04T04:28:35.318Z,103.07
2022-12-04T04:29:38.405Z,102.70
2022-12-04T04:30:41.117Z,105.63
2022-12-04T04:31:44.329Z,88.68
2022-12-04T04:32:54.229Z,81.22
2022-12-04T04:34:05.113Z,102.50
2022-12-04T04:35:41.928Z,98.07
2022-12-04T04:37:02.088Z,92.28
2022-12-04T04:38:25.592Z,96.25
2022-12-04T04:39:54.634Z,102.20
2022-12-04T04:41:01.799Z,87.82
2022-12-04T04:42:21.858Z,92.78
2022-12-04T04:43:35.585Z,92.78
2022-12-04T04:45:02.199Z,97.20
2022-12-04T04:46:21.233Z,98.32
2022-12-04T04:47:41.842Z,94.88
2022-12-04T04:48:51.262Z,87.53
2022-12-04T04:49:56.027Z,98.47
2022-12-04T04:51:00.294Z,91.43
2022-12-04T04:52:03.212Z,91.90
2022-12-04T04:53:09.555Z,94.03
2022-12-04T04:54:14.686Z,100.70
2022-12-04T04:55:18.606Z,97.60
2022-12-04T04:56:21.899Z,103.80
2022-12-04T04:57:29.564Z,89.18
2022-12-04T04:58:31.813Z,86.40
2022-12-04T04:59:34.714Z,93.82
2022-12-04T05:00:38.228Z,92.03
2022-12-04T05:01:42.676Z,86.38
2022-12-04T05:02:45.551Z,104.80
2022-12-04T05:03:48.042Z,108.70
2022-12-04T05:04:50.344Z,109.30
2022-12-04T05:05:52.581Z,98.88
2022-12-04T05:06:54.847Z,96.55
2022-12-04T05:07:57.232Z,94.18
2022-12-04T05:08:59.674Z,106.93
2022-12-04T05:10:01.867Z,102.10
2022-12-04T05:11:04.698Z,99.00
2022-12-04T05:12:06.964Z,91.90
2022-12-04T05:13:12.065Z,97.10
2022-12-04T05:14:14.352Z,96.03
2022-12-04T05:15:16.697Z,97.75
2022-12-04T05:16:19.101Z,96.82
2022-12-04T05:17:21.389Z,96.67
2022-12-04T05:18:23.699Z,97.50
2022-12-04T05:19:44.705Z,96.82
2022-12-04T05:20:46.934Z,86.45
2022-12-04T05:21:49.175Z,111.10
2022-12-04T05:22:51.388Z,90.95
2022-12-04T05:23:53.660Z,99.60
2022-12-04T05:24:56.335Z,112.80
2022-12-04T05:26:00.593Z,99.68
2022-12-04T05:27:02.819Z,102.82
2022-12-04T05:28:05.166Z,108.95
2022-12-04T05:29:07.419Z,110.65
2022-12-04T05:30:11.931Z,113.22
2022-12-04T05:31:14.239Z,105.78
2022-12-04T05:32:16.451Z,91.43
2022-12-04T05:33:18.655Z,105.32
2022-12-04T05:34:20.933Z,93.50
2022-12-04T05:35:23.170Z,94.68
2022-12-04T05:36:25.499Z,113.07
2022-12-04T05:37:27.906Z,97.40
2022-12-04T05:38:30.548Z,95.18
2022-12-04T05:39:34.842Z,98.40
2022-12-04T05:40:37.265Z,100.07
2022-12-04T05:41:39.506Z,101.57
2022-12-04T05:42:41.828Z,95.28
2022-12-04T05:43:44.080Z,98.13
2022-12-04T05:44:47.632Z,99.28
2022-12-04T05:45:49.966Z,94.43
2022-12-04T05:46:52.199Z,98.95
2022-12-04T05:47:54.456Z,95.75
2022-12-04T05:48:57.572Z,99.28
2022-12-04T05:49:59.879Z,101.50
2022-12-04T05:51:10.139Z,95.55
2022-12-04T05:52:12.494Z,96.57
2022-12-04T05:53:14.720Z,102.10
2022-12-04T05:54:18.416Z,104.50
2022-12-04T05:55:20.652Z,97.90
2022-12-04T05:56:22.979Z,89.25
2022-12-04T05:57:25.649Z,99.72
2022-12-04T05:58:28.531Z,100.55
2022-12-04T05:59:30.779Z,99.30
2022-12-04T06:00:33.008Z,112.85
2022-12-04T06:01:35.490Z,103.03
2022-12-04T06:02:37.947Z,107.78
2022-12-04T06:03:40.428Z,107.53
2022-12-04T06:04:43.119Z,96.82
2022-12-04T06:05:45.520Z,105.28
2022-12-04T06:06:47.752Z,102.05
2022-12-04T06:07:50.139Z,116.72
2022-12-04T06:08:54.778Z,102.85
2022-12-04T06:09:57.190Z,100.53
2022-12-04T06:10:59.606Z,93.53
2022-12-04T06:12:01.883Z,98.47
2022-12-04T06:13:06.009Z,96.82
2022-12-04T06:14:11.364Z,109.38
2022-12-04T06:15:13.586Z,96.05
2022-12-04T06:16:21.895Z,90.05
2022-12-04T06:17:24.363Z,105.35
2022-12-04T06:18:26.580Z,93.82
2022-12-04T06:19:28.795Z,94.18
2022-12-04T06:20:31.206Z,86.45
2022-12-04T06:21:35.346Z,96.53
2022-12-04T06:22:37.788Z,119.00
2022-12-04T06:23:40.023Z,109.05
2022-12-04T06:24:42.368Z,115.93
2022-12-04T06:25:44.607Z,97.78
2022-12-04T06:27:18.930Z,95.50
2022-12-04T06:28:09.493Z,94.43
2022-12-04T06:29:12.861Z,99.15
2022-12-04T06:30:15.106Z,110.28
2022-12-04T06:31:19.098Z,114.82
2022-12-04T06:32:22.313Z,139.10
2022-12-04T06:33:24.677Z,123.40
2022-12-04T06:34:27.225Z,122.70
2022-12-04T06:35:29.799Z,115.97
2022-12-04T06:36:32.394Z,97.90
2022-12-04T06:37:34.706Z,96.00
2022-12-04T06:38:38.704Z,92.38
2022-12-04T06:39:40.991Z,92.25
2022-12-04T06:40:43.202Z,96.18
2022-12-04T06:41:45.493Z,91.10
2022-12-04T06:42:47.753Z,90.68
2022-12-04T06:43:51.747Z,99.10
2022-12-04T06:44:53.989Z,92.20
2022-12-04T06:46:08.233Z,106.05
2022-12-04T06:47:10.559Z,100.45
2022-12-04T06:48:12.847Z,100.80
2022-12-04T06:49:15.159Z,95.97
2022-12-04T06:50:17.483Z,97.43
2022-12-04T06:51:22.913Z,96.88
2022-12-04T06:52:25.288Z,97.63
2022-12-04T06:53:30.541Z,94.75
2022-12-04T06:54:32.892Z,97.03
2022-12-04T06:55:35.203Z,90.88
2022-12-04T06:56:37.547Z,80.22
2022-12-04T06:57:39.744Z,88.15
2022-12-04T06:58:42.004Z,86.13
2022-12-04T06:59:44.314Z,98.13
2022-12-04T07:00:46.592Z,94.03
2022-12-04T07:01:48.922Z,96.80
2022-12-04T07:02:51.187Z,96.43
2022-12-04T07:03:54.798Z,93.70
2022-12-04T07:04:59.252Z,87.57
2022-12-04T07:06:20.451Z,80.50
2022-12-04T07:07:23.278Z,79.97
2022-12-04T07:08:25.591Z,95.68
2022-12-04T07:09:27.797Z,87.88
2022-12-04T07:10:30.055Z,84.72
2022-12-04T07:11:32.676Z,98.35
2022-12-04T07:12:34.887Z,101.90
2022-12-04T07:13:37.271Z,103.85
2022-12-04T07:14:39.709Z,103.82
2022-12-04T07:15:42.074Z,88.05
2022-12-04T07:16:44.375Z,87.72
2022-12-04T07:17:46.802Z,98.60
2022-12-04T07:18:56.657Z,98.88
2022-12-04T07:19:59.043Z,88.18
2022-12-04T07:21:05.248Z,85.90
2022-12-04T07:22:08.953Z,86.78
2022-12-04T07:23:11.240Z,76.97
2022-12-04T07:24:16.326Z,92.63
2022-12-04T07:25:18.747Z,94.57
2022-12-04T07:26:21.462Z,86.80
2022-12-04T07:27:23.711Z,91.53
2022-12-04T07:28:25.937Z,90.13
2022-12-04T07:29:28.168Z,77.63
2022-12-04T07:30:30.585Z,81.03
2022-12-04T07:31:32.912Z,80.13
2022-12-04T07:32:35.426Z,82.68
2022-12-04T07:33:38.198Z,94.03
2022-12-04T07:34:40.411Z,85.25
2022-12-04T07:35:42.662Z,90.35
2022-12-04T07:36:44.921Z,91.80
2022-12-04T07:37:47.168Z,84.43
2022-12-04T07:38:49.802Z,88.93
2022-12-04T07:39:52.864Z,108.45
2022-12-04T07:41:03.234Z,96.07
2022-12-04T07:42:05.499Z,102.80
2022-12-04T07:43:07.688Z,82.57
2022-12-04T07:44:09.976Z,89.45
2022-12-04T07:45:12.478Z,88.88
2022-12-04T07:46:18.718Z,94.25
2022-12-04T07:47:21.088Z,88.57
2022-12-04T07:48:24.806Z,81.20
2022-12-04T07:49:31.195Z,85.97
2022-12-04T07:50:33.627Z,84.78
2022-12-04T07:51:35.844Z,84.20
2022-12-04T07:52:38.652Z,82.97
2022-12-04T07:53:42.103Z,89.00
2022-12-04T07:54:44.418Z,87.68
2022-12-04T07:55:52.523Z,87.53
2022-12-04T07:56:54.765Z,85.07
2022-12-04T07:57:57.014Z,77.63
2022-12-04T07:59:00.317Z,86.18
2022-12-04T08:00:02.664Z,95.03
2022-12-04T08:01:16.555Z,103.88
2022-12-04T08:02:18.950Z,86.53
2022-12-04T08:03:21.213Z,93.10
2022-12-04T08:04:23.549Z,86.10
2022-12-04T08:05:25.843Z,99.13
2022-12-04T08:06:30.199Z,89.22
2022-12-04T08:07:33.475Z,96.03
2022-12-04T08:08:36.388Z,84.85
2022-12-04T08:09:38.765Z,95.93
2022-12-04T08:10:41.435Z,85.78
2022-12-04T08:11:43.696Z,92.93
2022-12-04T08:12:45.877Z,87.00
2022-12-04T08:13:48.823Z,94.20
2022-12-04T08:14:51.098Z,78.38
2022-12-04T08:15:53.463Z,94.00
2022-12-04T08:16:55.909Z,77.25
2022-12-04T08:17:58.174Z,91.07
2022-12-04T08:19:01.375Z,84.57
2022-12-04T08:20:03.954Z,87.50
2022-12-04T08:21:15.481Z,94.18
2022-12-04T08:22:21.884Z,77.43
2022-12-04T08:23:27.166Z,86.63
2022-12-04T08:24:29.461Z,91.80
2022-12-04T08:25:31.791Z,83.10
2022-12-04T08:26:34.085Z,82.15
2022-12-04T08:27:36.339Z,93.90
2022-12-04T08:28:39.596Z,84.55
2022-12-04T08:29:41.887Z,92.38
2022-12-04T08:30:44.213Z,89.00
2022-12-04T08:31:46.567Z,88.20
2022-12-04T08:32:49.049Z,89.97
2022-12-04T08:33:53.646Z,90.53
2022-12-04T08:34:56.182Z,81.93
2022-12-04T08:35:59.292Z,94.75
2022-12-04T08:37:01.571Z,82.32
2022-12-04T08:38:03.894Z,77.25
2022-12-04T08:39:06.193Z,78.43
2022-12-04T08:40:08.928Z,82.95
2022-12-04T08:41:14.450Z,74.72
2022-12-04T08:42:16.691Z,80.13
2022-12-04T08:43:18.918Z,78.50
2022-12-04T08:44:21.132Z,81.35
2022-12-04T08:45:23.367Z,82.50
2022-12-04T08:46:27.284Z,95.05
2022-12-04T08:47:29.545Z,91.32
2022-12-04T08:48:32.413Z,81.03
2022-12-04T08:49:34.662Z,78.30
2022-12-04T08:50:36.990Z,81.75
2022-12-04T08:51:39.955Z,83.75
2022-12-04T08:52:42.226Z,84.25
2022-12-04T08:53:44.820Z,80.72
2022-12-04T08:54:47.141Z,79.22
2022-12-04T08:55:49.905Z,84.05
2022-12-04T08:56:52.185Z,77.50
2022-12-04T08:57:54.919Z,93.35
2022-12-04T08:58:58.175Z,79.60
2022-12-04T09:00:00.466Z,82.30
2022-12-04T09:01:12.176Z,88.85
2022-12-04T09:02:16.754Z,82.70
2022-12-04T09:03:23.564Z,86.57
2022-12-04T09:04:28.548Z,80.35
2022-12-04T09:05:31.195Z,95.65
2022-12-04T09:06:33.528Z,81.57
2022-12-04T09:07:36.012Z,82.07
2022-12-04T09:08:39.049Z,79.93
2022-12-04T09:09:47.922Z,94.20
2022-12-04T09:10:50.657Z,93.50
2022-12-04T09:11:52.941Z,96.20
2022-12-04T09:12:55.203Z,97.95
2022-12-04T09:13:57.444Z,86.68
2022-12-04T09:14:59.710Z,88.85
2022-12-04T09:16:08.119Z,88.57
2022-12-04T09:17:10.696Z,88.53
2022-12-04T09:18:13.264Z,83.63
2022-12-04T09:19:15.492Z,79.38
2022-12-04T09:20:17.918Z,71.20
2022-12-04T09:21:21.846Z,76.93
2022-12-04T09:22:24.041Z,83.95
2022-12-04T09:23:29.035Z,96.85
2022-12-04T09:24:31.431Z,71.28
2022-12-04T09:25:37.530Z,89.53
2022-12-04T09:26:39.877Z,80.80
2022-12-04T09:27:42.812Z,87.57
2022-12-04T09:28:46.005Z,81.63
2022-12-04T09:29:48.432Z,75.80
2022-12-04T09:30:58.598Z,78.05
2022-12-04T09:32:00.862Z,89.40
2022-12-04T09:33:03.119Z,92.30
2022-12-04T09:34:05.351Z,79.15
2022-12-04T09:35:08.315Z,71.20
2022-12-04T09:36:17.190Z,88.18
2022-12-04T09:37:19.391Z,83.63
2022-12-04T09:38:21.727Z,86.18
2022-12-04T09:39:24.029Z,72.30
2022-12-04T09:40:36.836Z,78.00
2022-12-04T09:41:51.070Z,82.78
2022-12-04T09:43:18.223Z,81.38
2022-12-04T09:44:27.034Z,77.72
2022-12-04T09:45:33.561Z,88.00
2022-12-04T09:46:40.063Z,79.68
2022-12-04T09:47:48.595Z,91.65
2022-12-04T09:48:51.842Z,85.38
2022-12-04T09:50:01.668Z,88.03
2022-12-04T09:51:06.922Z,82.30
2022-12-04T09:52:41.960Z,89.38
2022-12-04T09:53:59.297Z,79.10
2022-12-04T09:55:05.196Z,91.57
2022-12-04T09:56:12.668Z,78.95
2022-12-04T09:57:38.850Z,73.40
2022-12-04T09:58:52.336Z,86.10
2022-12-04T09:59:55.152Z,76.88
2022-12-04T10:01:00.987Z,82.80
2022-12-04T10:02:05.512Z,77.50
2022-12-04T10:03:15.386Z,79.45
2022-12-04T10:04:19.002Z,73.57
2022-12-04T10:05:52.869Z,70.20
2022-12-04T10:07:25.610Z,80.63
2022-12-04T10:08:38.527Z,83.05
2022-12-04T10:09:54.865Z,78.75
2022-12-04T10:11:30.690Z,81.55
2022-12-04T10:12:53.337Z,70.95
2022-12-04T10:14:08.197Z,75.47
2022-12-04T10:15:30.013Z,73.95
2022-12-04T10:16:52.701Z,76.25
2022-12-04T10:18:03.058Z,66.25
2022-12-04T10:19:21.388Z,79.47
2022-12-04T10:20:29.834Z,82.38
2022-12-04T10:21:54.898Z,88.88
2022-12-04T10:23:14.353Z,85.07
2022-12-04T10:24:21.209Z,80.15
2022-12-04T10:25:25.622Z,75.72
2022-12-04T10:26:34.852Z,82.90
2022-12-04T10:27:49.804Z,74.25
2022-12-04T10:28:59.342Z,78.18
2022-12-04T10:30:20.944Z,69.13
2022-12-04T10:31:24.788Z,74.68
2022-12-04T10:32:31.854Z,71.10
2022-12-04T10:33:39.511Z,74.72
2022-12-04T10:34:45.628Z,80.95
2022-12-04T10:35:52.635Z,74.07
2022-12-04T10:37:04.523Z,82.80
2022-12-04T10:38:15.262Z,75.72
2022-12-04T10:39:34.513Z,84.20
2022-12-04T10:40:44.371Z,74.82
2022-12-04T10:42:05.366Z,71.30
2022-12-04T10:43:38.137Z,72.43
2022-12-04T10:44:40.392Z,77.60
2022-12-04T10:45:43.123Z,75.80
2022-12-04T10:46:46.898Z,73.78
2022-12-04T10:47:51.156Z,71.30
2022-12-04T10:49:01.103Z,83.28
2022-12-04T10:50:12.986Z,71.30
2022-12-04T10:51:17.545Z,79.75
2022-12-04T10:52:19.788Z,81.47
2022-12-04T10:53:31.693Z,73.55
2022-12-04T10:54:43.733Z,81.68
2022-12-04T10:55:46.003Z,78.47
2022-12-04T10:56:59.224Z,78.95
2022-12-04T10:58:02.923Z,74.45
2022-12-04T10:59:05.998Z,76.90
2022-12-04T11:00:30.477Z,75.10
2022-12-04T11:01:35.204Z,73.78
2022-12-04T11:02:39.416Z,68.70
2022-12-04T11:03:46.003Z,73.07
2022-12-04T11:05:02.100Z,77.82
2022-12-04T11:06:08.674Z,74.60
2022-12-04T11:07:21.233Z,74.53
2022-12-04T11:08:26.682Z,73.15
2022-12-04T11:09:29.578Z,67.20
2022-12-04T11:10:37.770Z,69.47
2022-12-04T11:11:40.117Z,77.13
2022-12-04T11:12:52.882Z,68.63
2022-12-04T11:14:20.589Z,74.60
2022-12-04T11:15:24.032Z,85.93
2022-12-04T11:16:39.058Z,69.95
2022-12-04T11:17:41.408Z,70.88
2022-12-04T11:18:49.452Z,74.88
2022-12-04T11:20:09.655Z,77.03
2022-12-04T11:21:26.106Z,70.20
2022-12-04T11:22:28.502Z,77.88
2022-12-04T11:23:42.782Z,69.10
2022-12-04T11:24:54.317Z,77.28
2022-12-04T11:26:05.292Z,70.40
2022-12-04T11:27:19.796Z,73.05
2022-12-04T11:28:46.109Z,64.82
2022-12-04T11:29:49.047Z,59.50
2022-12-04T11:30:55.095Z,70.28
2022-12-04T11:32:02.804Z,71.97
2022-12-04T11:33:18.920Z,64.97
2022-12-04T11:34:25.429Z,74.20
2022-12-04T11:35:29.849Z,74.60
2022-12-04T11:36:35.948Z,69.28
2022-12-04T11:37:44.977Z,65.63
2022-12-04T11:38:48.692Z,66.15
2022-12-04T11:39:53.437Z,62.22
2022-12-04T11:40:57.906Z,68.68
2022-12-04T11:42:05.467Z,71.90
2022-12-04T11:43:10.323Z,72.10
2022-12-04T11:44:31.648Z,66.95
2022-12-04T11:45:34.127Z,72.03
2022-12-04T11:46:37.076Z,77.97
2022-12-04T11:47:39.472Z,68.47
2022-12-04T11:48:44.487Z,73.05
2022-12-04T11:50:03.637Z,82.82
2022-12-04T11:51:29.982Z,75.32
2022-12-04T11:53:04.202Z,79.90
2022-12-04T11:54:11.269Z,69.32
2022-12-04T11:55:29.392Z,71.85
2022-12-04T11:56:42.808Z,72.68
2022-12-04T11:58:03.537Z,72.90
2022-12-04T11:59:31.312Z,68.63
2022-12-04T12:00:41.326Z,72.53
2022-12-04T12:02:04.857Z,63.38
2022-12-04T12:03:18.391Z,65.15
2022-12-04T12:04:42.107Z,69.35
2022-12-04T12:05:54.653Z,69.68
2022-12-04T12:07:09.115Z,71.47
2022-12-04T12:08:40.199Z,72.20
2022-12-04T12:10:17.305Z,68.65
2022-12-04T12:11:46.652Z,69.50
2022-12-04T12:13:06.840Z,72.80
2022-12-04T12:14:19.963Z,67.85
2022-12-04T12:15:51.051Z,67.32
2022-12-04T12:17:04.747Z,70.57
2022-12-04T12:18:30.703Z,71.82
2022-12-04T12:20:14.023Z,68.07
2022-12-04T12:21:24.978Z,65.30
2022-12-04T12:22:45.206Z,71.75
2022-12-04T12:24:29.870Z,69.63
2022-12-04T12:26:00.323Z,76.22
2022-12-04T12:27:40.741Z,58.65
2022-12-04T12:28:50.872Z,62.10
2022-12-04T12:30:09.976Z,65.30
2022-12-04T12:31:29.228Z,78.38
2022-12-04T12:32:47.966Z,62.08
2022-12-04T12:33:57.312Z,72.70
2022-12-04T12:35:00.548Z,68.93
2022-12-04T12:36:09.912Z,77.55
2022-12-04T12:37:44.036Z,70.18
2022-12-04T12:38:51.349Z,61.40
2022-12-04T12:40:16.646Z,73.88
2022-12-04T12:41:52.712Z,66.88
2022-12-04T12:43:06.848Z,69.82
2022-12-04T12:44:21.503Z,64.93
2022-12-04T12:45:53.983Z,70.10
2022-12-04T12:47:15.066Z,70.68
2022-12-04T12:48:30.118Z,67.07
2022-12-04T12:49:45.987Z,66.60
2022-12-04T12:51:14.798Z,65.43
2022-12-04T12:52:40.759Z,66.18
2022-12-04T12:53:48.020Z,74.28
2022-12-04T12:54:59.760Z,71.68
2022-12-04T12:56:03.918Z,61.25
2022-12-04T12:57:37.785Z,66.68
2022-12-04T12:58:56.269Z,63.95
2022-12-04T13:00:10.544Z,62.13
2022-12-04T13:01:45.357Z,61.17
2022-12-04T13:02:53.611Z,80.40
2022-12-04T13:04:03.510Z,61.33
2022-12-04T13:05:09.573Z,64.70
2022-12-04T13:06:20.707Z,61.38
2022-12-04T13:07:53.212Z,71.25
2022-12-04T13:09:21.027Z,70.40
2022-12-04T13:10:28.582Z,58.75
2022-12-04T13:11:32.235Z,62.78
2022-12-04T13:12:59.806Z,66.32
2022-12-04T13:14:04.411Z,67.50
2022-12-04T13:15:12.784Z,67.55
2022-12-04T13:16:21.456Z,71.70
2022-12-04T13:17:37.507Z,64.93
2022-12-04T13:18:51.387Z,77.70
2022-12-04T13:19:57.194Z,82.38
2022-12-04T13:21:03.316Z,140.80
2022-12-04T13:22:08.507Z,111.40
2022-12-04T13:23:32.932Z,86.55
2022-12-04T13:24:44.046Z,98.82
2022-12-04T13:26:06.391Z,97.65
2022-12-04T13:27:46.425Z,75.95
2022-12-04T13:29:17.259Z,78.80
2022-12-04T13:30:36.555Z,77.10
2022-12-04T13:32:28.031Z,65.93
2022-12-04T13:33:50.636Z,73.13
2022-12-04T13:34:58.755Z,83.13
2022-12-04T13:36:19.416Z,77.32
2022-12-04T13:37:51.301Z,71.00
2022-12-04T13:39:12.282Z,73.57
2022-12-04T13:40:32.612Z,71.93
2022-12-04T13:41:38.150Z,70.93
2022-12-04T13:42:40.823Z,72.75
2022-12-04T13:43:42.991Z,68.57
2022-12-04T13:44:54.719Z,70.82
2022-12-04T13:46:01.846Z,70.80
2022-12-04T13:47:24.585Z,69.72
2022-12-04T13:48:36.465Z,65.78
2022-12-04T13:49:45.947Z,70.65
2022-12-04T13:50:48.280Z,70.95
2022-12-04T13:51:50.811Z,76.53
2022-12-04T13:52:53.750Z,71.55
2022-12-04T13:54:12.989Z,63.63
2022-12-04T13:55:30.088Z,72.78
2022-12-04T13:56:32.364Z,64.80
2022-12-04T13:57:34.597Z,82.82
2022-12-04T13:58:37.658Z,71.97
2022-12-04T13:59:40.927Z,71.20
2022-12-04T14:00:44.158Z,67.15
2022-12-04T14:01:49.383Z,68.75
2022-12-04T14:02:54.926Z,82.70
2022-12-04T14:03:59.557Z,65.68
2022-12-04T14:05:05.641Z,66.90
2022-12-04T14:06:36.469Z,69.35
2022-12-04T14:07:41.758Z,67.25
2022-12-04T14:08:44.237Z,65.40
2022-12-04T14:09:53.223Z,63.67
2022-12-04T14:11:09.280Z,77.95
2022-12-04T14:12:14.088Z,66.38
2022-12-04T14:13:23.480Z,62.97
2022-12-04T14:14:33.355Z,69.65
2022-12-04T14:15:37.360Z,74.60
2022-12-04T14:16:42.016Z,61.35
2022-12-04T14:17:56.060Z,66.00
2022-12-04T14:19:00.624Z,72.80
2022-12-04T14:20:27.427Z,78.53
2022-12-04T14:21:44.057Z,65.68
2022-12-04T14:22:46.362Z,71.50
2022-12-04T14:23:50.080Z,71.30
2022-12-04T14:24:52.480Z,64.57
2022-12-04T14:25:58.862Z,65.35
2022-12-04T14:27:11.749Z,69.45
2022-12-04T14:28:37.314Z,72.95
2022-12-04T14:29:49.440Z,70.25
2022-12-04T14:31:32.198Z,78.05
2022-12-04T14:32:35.529Z,82.93
2022-12-04T14:33:55.571Z,73.20
2022-12-04T14:34:59.274Z,69.53
2022-12-04T14:36:02.872Z,65.35
2022-12-04T14:37:05.835Z,74.10
2022-12-04T14:38:15.308Z,73.18
2022-12-04T14:39:27.740Z,88.28
2022-12-04T14:40:39.076Z,71.53
2022-12-04T14:41:41.788Z,69.80
2022-12-04T14:42:48.869Z,92.95